createdAt,value
2022-12-12T00:01:55.670Z,-3.00
2022-12-12T00:05:57.077Z,-2.91
2022-12-12T00:09:58.556Z,-2.93
2022-12-12T00:14:00.127Z,-3.15
2022-12-12T00:18:01.560Z,-3.02
2022-12-12T00:22:02.985Z,-3.05
2022-12-12T00:26:08.874Z,-3.17
2022-12-12T00:30:10.847Z,-3.50
2022-12-12T00:34:12.264Z,-3.42
2022-12-12T00:38:13.725Z,-3.40
2022-12-12T00:42:15.429Z,-3.31
2022-12-12T00:46:21.062Z,-3.21
2022-12-12T00:50:22.650Z,-3.08
2022-12-12T00:54:24.129Z,-3.26
2022-12-12T00:58:26.273Z,-3.13
2022-12-12T01:02:28.422Z,-3.09
2022-12-12T01:06:30.392Z,-3.14
2022-12-12T01:10:31.996Z,-3.26
2022-12-12T01:14:33.421Z,-3.27
2022-12-12T01:18:35.619Z,-3.12
2022-12-12T01:22:37.368Z,-2.99
2022-12-12T01:26:38.840Z,-2.91
2022-12-12T01:30:40.350Z,-2.89
2022-12-12T01:34:41.788Z,-2.92
2022-12-12T01:38:47.960Z,-2.86
2022-12-12T01:42:50.501Z,-2.70
2022-12-12T01:46:52.057Z,-2.92
2022-12-12T01:50:54.881Z,-2.86
2022-12-12T01:55:02.525Z,-2.75
2022-12-12T01:59:07.330Z,-2.66
2022-12-12T02:03:09.232Z,-2.65
2022-12-12T02:07:10.690Z,-2.85
2022-12-12T02:11:13.046Z,-2.74
2022-12-12T02:15:14.715Z,-2.70
2022-12-12T02:19:55.831Z,-2.57
2022-12-12T02:24:30.065Z,-2.90
2022-12-12T02:28:53.140Z,-2.77
2022-12-12T02:33:04.434Z,-2.64
2022-12-12T02:37:29.188Z,-2.55
2022-12-12T02:41:43.289Z,-2.63
2022-12-12T02:45:57.933Z,-2.43
2022-12-12T02:50:10.212Z,-2.45
2022-12-12T02:54:17.287Z,-2.42
2022-12-12T02:58:19.857Z,-2.49
2022-12-12T03:02:30.241Z,-2.68
2022-12-12T03:07:02.566Z,-2.41
2022-12-12T03:11:10.851Z,-2.37
2022-12-12T03:15:38.255Z,-2.34
2022-12-12T03:19:56.384Z,-2.36
2022-12-12T03:24:08.316Z,-2.26
2022-12-12T03:28:29.995Z,-2.26
2022-12-12T03:32:58.518Z,-2.18
2022-12-12T03:37:22.176Z,-2.18
2022-12-12T03:41:30.953Z,-2.04
2022-12-12T03:45:51.881Z,-2.21
2022-12-12T03:50:02.168Z,-2.04
2022-12-12T03:54:11.231Z,-2.20
2022-12-12T03:58:37.511Z,-1.97
2022-12-12T04:02:44.727Z,-2.01
2022-12-12T04:06:54.148Z,-2.10
2022-12-12T04:11:42.410Z,-2.07
2022-12-12T04:15:56.757Z,-2.08
2022-12-12T04:20:30.677Z,-1.87
2022-12-12T04:24:47.132Z,-2.07
2022-12-12T04:29:15.397Z,-1.83
2022-12-12T04:33:22.880Z,-1.80
2022-12-12T04:37:29.266Z,-1.94
2022-12-12T04:41:35.036Z,-1.92
2022-12-12T04:45:44.088Z,-1.75
2022-12-12T04:49:49.838Z,-1.71
2022-12-12T04:53:58.200Z,-1.72
2022-12-12T04:58:00.112Z,-1.62
2022-12-12T05:02:14.694Z,-1.57
2022-12-12T05:06:20.119Z,-1.55
2022-12-12T05:10:21.957Z,-1.76
2022-12-12T05:14:23.414Z,-1.65
2022-12-12T05:18:24.872Z,-1.54
2022-12-12T05:22:26.368Z,-1.79
2022-12-12T05:26:31.323Z,-1.70
2022-12-12T05:30:33.254Z,-1.55
2022-12-12T05:34:34.753Z,-1.60
2022-12-12T05:38:36.407Z,-1.50
2022-12-12T05:42:37.986Z,-1.40
2022-12-12T05:46:40.617Z,-1.48
2022-12-12T05:50:42.072Z,-1.35
2022-12-12T05:54:43.482Z,-1.53
2022-12-12T05:58:44.885Z,-1.38
2022-12-12T06:02:46.317Z,-1.39
2022-12-12T06:06:47.972Z,-1.34
2022-12-12T06:10:49.434Z,-1.42
2022-12-12T06:14:50.872Z,-1.28
2022-12-12T06:18:53.995Z,-1.31
2022-12-12T06:22:55.374Z,-1.39
2022-12-12T06:26:56.816Z,-1.48
2022-12-12T06:30:58.318Z,-1.48
2022-12-12T06:34:59.744Z,-1.41
2022-12-12T06:39:01.826Z,-1.34
2022-12-12T06:43:03.276Z,-1.41
2022-12-12T06:47:04.711Z,-1.37
2022-12-12T06:51:08.416Z,-1.33
2022-12-12T06:55:10.054Z,-1.32
2022-12-12T06:59:12.576Z,-1.44
2022-12-12T07:03:14.063Z,-1.44
2022-12-12T07:07:15.518Z,-1.31
2022-12-12T07:11:20.596Z,-1.43
2022-12-12T07:15:22.088Z,-1.32
2022-12-12T07:19:23.619Z,-1.38
2022-12-12T07:23:25.084Z,-1.37
2022-12-12T07:27:26.517Z,-1.45
2022-12-12T07:31:28.926Z,-1.46
2022-12-12T07:35:30.466Z,-1.53
2022-12-12T07:39:32.604Z,-1.48
2022-12-12T07:43:43.336Z,-1.50
2022-12-12T07:47:46.485Z,-1.47
2022-12-12T07:51:49.460Z,-1.39
2022-12-12T07:55:51.024Z,-1.47
2022-12-12T07:59:52.842Z,-1.36
2022-12-12T08:03:54.755Z,-1.26
2022-12-12T08:07:56.260Z,-1.17
2022-12-12T08:11:58.983Z,-1.24
2022-12-12T08:16:00.647Z,-1.30
2022-12-12T08:20:02.252Z,-1.29
2022-12-12T08:24:03.857Z,-1.28
2022-12-12T08:28:05.374Z,-1.25
2022-12-12T08:32:07.235Z,-1.21
2022-12-12T08:36:18.114Z,-1.19
2022-12-12T08:40:19.574Z,-1.39
2022-12-12T08:44:21.784Z,-1.32
2022-12-12T08:48:23.213Z,-1.31
2022-12-12T08:52:24.659Z,-1.14
2022-12-12T08:56:26.445Z,-1.30
2022-12-12T09:00:27.903Z,-1.24
2022-12-12T09:04:29.321Z,-1.33
2022-12-12T09:08:30.876Z,-1.31
2022-12-12T09:12:35.705Z,-1.21
2022-12-12T09:16:41.531Z,-1.15
2022-12-12T09:20:43.120Z,-1.23
2022-12-12T09:24:44.606Z,-1.23
2022-12-12T09:28:46.239Z,-1.23
2022-12-12T09:32:47.736Z,-1.44
2022-12-12T09:36:49.152Z,-1.29
2022-12-12T09:40:57.445Z,-1.41
2022-12-12T09:45:03.985Z,-1.25
2022-12-12T09:49:15.867Z,-1.35
2022-12-12T09:53:21.648Z,-1.22
2022-12-12T09:57:39.633Z,-1.07
2022-12-12T10:01:56.813Z,-0.73
2022-12-12T10:10:39.794Z,-0.78
2022-12-12T10:14:47.839Z,-1.08
2022-12-12T10:18:53.009Z,-0.91
2022-12-12T10:23:31.925Z,-0.88
2022-12-12T10:27:33.475Z,-0.82
2022-12-12T10:31:55.951Z,-0.53
2022-12-12T10:36:18.550Z,-0.64
2022-12-12T10:40:19.949Z,-0.40
2022-12-12T10:44:51.526Z,-0.16
2022-12-12T10:48:54.069Z,-0.01
2022-12-12T10:52:55.525Z,0.06
2022-12-12T10:57:20.359Z,0.29
2022-12-12T11:01:52.456Z,0.67
2022-12-12T11:05:48.041Z,1.07
2022-12-12T11:09:49.460Z,1.45
2022-12-12T11:13:55.576Z,1.29
2022-12-12T11:18:02.734Z,1.09
2022-12-12T11:22:07.600Z,1.21
2022-12-12T11:26:15.610Z,1.11
2022-12-12T11:30:32.530Z,0.54
2022-12-12T11:34:38.410Z,1.35
2022-12-12T11:38:45.903Z,1.07
2022-12-12T11:42:47.417Z,1.75
2022-12-12T11:46:48.880Z,1.27
2022-12-12T11:50:50.286Z,0.55
2022-12-12T11:54:53.342Z,0.82
2022-12-12T11:59:02.339Z,0.82
2022-12-12T12:03:15.028Z,-0.18
2022-12-12T12:07:54.322Z,-0.79
2022-12-12T12:12:16.040Z,-0.95
2022-12-12T12:17:07.855Z,-0.89
2022-12-12T12:21:30.911Z,-1.44
2022-12-12T12:26:02.866Z,-1.64
2022-12-12T12:30:17.267Z,-1.96
2022-12-12T12:34:35.848Z,-2.08
2022-12-12T12:38:58.688Z,-1.73
2022-12-12T12:43:24.730Z,-1.63
2022-12-12T12:47:47.398Z,-1.39
2022-12-12T12:52:12.788Z,-1.57
2022-12-12T12:56:26.332Z,-1.71
2022-12-12T13:00:30.650Z,-1.69
2022-12-12T13:04:41.488Z,-1.47
2022-12-12T13:09:06.906Z,-1.36
2022-12-12T13:13:29.374Z,-1.47
2022-12-12T13:17:45.967Z,-1.65
2022-12-12T13:22:02.387Z,-1.61
2022-12-12T13:26:15.554Z,-1.82
2022-12-12T13:30:29.713Z,-1.73
2022-12-12T13:34:38.320Z,-1.70
2022-12-12T13:38:40.670Z,-1.93
2022-12-12T13:43:07.212Z,-1.93
2022-12-12T13:47:30.282Z,-2.00
2022-12-12T13:51:37.131Z,-1.94
2022-12-12T13:55:38.601Z,-1.81
2022-12-12T13:59:58.022Z,-2.07
2022-12-12T14:04:00.584Z,-2.25
2022-12-12T14:08:07.082Z,-2.22
2022-12-12T14:12:17.902Z,-2.43
2022-12-12T14:16:29.877Z,-2.47
2022-12-12T14:20:33.116Z,-2.53
2022-12-12T14:24:34.768Z,-2.62
2022-12-12T14:28:36.427Z,-2.59
2022-12-12T14:33:03.060Z,-2.93
2022-12-12T14:37:45.800Z,-3.09
2022-12-12T14:41:50.526Z,-2.95
2022-12-12T14:45:54.998Z,-2.82
2022-12-12T14:50:10.917Z,-2.86
2022-12-12T14:54:19.755Z,-2.68
2022-12-12T14:58:26.299Z,-2.63
2022-12-12T15:02:38.739Z,-2.84
2022-12-12T15:06:45.489Z,-2.74
2022-12-12T15:10:58.603Z,-2.91
2022-12-12T15:15:01.287Z,-2.79
2022-12-12T15:19:03.456Z,-2.86
2022-12-12T15:23:07.326Z,-2.75
2022-12-12T15:27:18.881Z,-2.78
2022-12-12T15:31:20.716Z,-2.81
2022-12-12T15:35:23.212Z,-2.73
2022-12-12T15:39:24.849Z,-2.62
2022-12-12T15:43:28.938Z,-2.78
2022-12-12T15:47:30.629Z,-2.76
2022-12-12T15:51:32.389Z,-2.65
2022-12-12T15:55:35.046Z,-2.79
2022-12-12T15:59:36.575Z,-2.48
2022-12-12T16:03:38.139Z,-2.90
2022-12-12T16:07:40.729Z,-2.95
2022-12-12T16:11:42.306Z,-2.93
2022-12-12T16:15:43.829Z,-2.89
2022-12-12T16:19:54.000Z,-2.90
2022-12-12T16:24:09.788Z,-2.87
2022-12-12T16:28:23.268Z,-2.54
2022-12-12T16:32:26.671Z,-2.72
2022-12-12T16:36:28.112Z,-2.54
2022-12-12T16:40:29.585Z,-2.89
2022-12-12T16:44:31.203Z,-2.70
2022-12-12T16:48:35.328Z,-2.76
2022-12-12T16:52:36.893Z,-2.75
2022-12-12T16:56:38.396Z,-2.75
2022-12-12T17:00:40.060Z,-2.73
2022-12-12T17:04:41.533Z,-2.74
2022-12-12T17:08:42.987Z,-2.87
2022-12-12T17:12:44.906Z,-2.78
2022-12-12T17:16:46.459Z,-2.82
2022-12-12T17:20:48.190Z,-2.56
2022-12-12T17:24:52.039Z,-2.42
2022-12-12T17:28:53.485Z,-2.67
2022-12-12T17:37:14.326Z,-2.59
2022-12-12T17:41:18.452Z,-2.66
2022-12-12T17:45:20.150Z,-2.86
2022-12-12T17:49:21.835Z,-2.62
2022-12-12T17:53:23.247Z,-2.66
2022-12-12T17:57:25.574Z,-2.65
2022-12-12T18:01:29.478Z,-2.75
2022-12-12T18:05:31.946Z,-2.60
2022-12-12T18:09:33.544Z,-2.68
2022-12-12T18:13:36.049Z,-2.79
2022-12-12T18:17:37.691Z,-2.79
2022-12-12T18:26:09.937Z,-2.74
2022-12-12T18:30:12.187Z,-2.78
2022-12-12T18:34:14.457Z,-2.87
2022-12-12T18:38:16.771Z,-2.61
2022-12-12T18:42:18.336Z,-3.04
2022-12-12T18:46:22.275Z,-2.78
2022-12-12T18:50:23.862Z,-2.69
2022-12-12T18:54:25.379Z,-2.67
2022-12-12T18:58:26.862Z,-2.84
2022-12-12T19:02:28.385Z,-2.85
2022-12-12T19:06:35.366Z,-2.92
2022-12-12T19:10:38.345Z,-2.71
2022-12-12T19:15:08.200Z,-2.71
2022-12-12T19:19:05.006Z,-3.01
2022-12-12T19:23:06.472Z,-2.99
2022-12-12T19:27:08.047Z,-2.91
2022-12-12T19:31:15.812Z,-2.89
2022-12-12T19:35:17.525Z,-2.73
2022-12-12T19:39:18.970Z,-2.90
2022-12-12T19:43:20.462Z,-2.71
2022-12-12T19:47:22.085Z,-2.64
2022-12-12T19:51:25.613Z,-2.53
2022-12-12T19:55:27.056Z,-2.86
2022-12-12T19:59:28.572Z,-2.90
2022-12-12T20:03:30.025Z,-2.80
2022-12-12T20:07:31.513Z,-2.86
2022-12-12T20:11:36.741Z,-2.89
2022-12-12T20:15:52.060Z,-2.65
2022-12-12T20:19:53.568Z,-2.47
2022-12-12T20:24:04.277Z,-2.54
2022-12-12T20:28:05.762Z,-2.77
2022-12-12T20:32:14.883Z,-2.61
2022-12-12T20:36:21.704Z,-2.78
2022-12-12T20:40:29.747Z,-3.00
2022-12-12T20:44:31.207Z,-2.72
2022-12-12T20:48:32.710Z,-2.72
2022-12-12T20:52:35.694Z,-2.70
2022-12-12T20:56:45.940Z,-2.61
2022-12-12T21:00:51.403Z,-2.69
2022-12-12T21:04:54.169Z,-2.49
2022-12-12T21:08:56.103Z,-2.62
2022-12-12T21:12:57.731Z,-2.95
2022-12-12T21:17:07.800Z,-2.72
2022-12-12T21:21:16.981Z,-2.78
2022-12-12T21:25:18.776Z,-2.81
2022-12-12T21:29:20.358Z,-2.76
2022-12-12T21:33:22.196Z,-2.66
2022-12-12T21:37:23.600Z,-2.62
2022-12-12T21:41:28.752Z,-2.79
2022-12-12T21:45:30.336Z,-2.71
2022-12-12T21:49:33.876Z,-2.75
2022-12-12T21:53:35.724Z,-2.65
2022-12-12T21:57:37.187Z,-2.57
2022-12-12T22:01:42.266Z,-2.43
2022-12-12T22:05:51.095Z,-2.64
2022-12-12T22:09:57.703Z,-2.63
2022-12-12T22:14:11.652Z,-2.64
2022-12-12T22:18:13.158Z,-2.67
2022-12-12T22:22:15.196Z,-2.83
2022-12-12T22:26:17.958Z,-2.72
2022-12-12T22:30:27.596Z,-2.66
2022-12-12T22:34:29.058Z,-2.54
2022-12-12T22:38:34.739Z,-2.59
2022-12-12T22:42:39.265Z,-2.64
2022-12-12T22:46:44.072Z,-2.83
2022-12-12T22:50:46.008Z,-2.86
2022-12-12T22:54:47.524Z,-2.68
2022-12-12T22:58:49.010Z,-2.87
2022-12-12T23:02:50.458Z,-2.61
2022-12-12T23:06:51.927Z,-2.77
2022-12-12T23:10:53.353Z,-2.69
2022-12-12T23:14:54.834Z,-2.86
2022-12-12T23:18:58.322Z,-2.66
2022-12-12T23:22:59.732Z,-2.61
2022-12-12T23:27:01.463Z,-2.57
2022-12-12T23:31:08.404Z,-2.49
2022-12-12T23:35:09.998Z,-2.66
2022-12-12T23:39:12.501Z,-2.69
2022-12-12T23:43:13.944Z,-2.55
2022-12-12T23:47:15.366Z,-2.61
2022-12-12T23:51:16.861Z,-2.56
2022-12-12T23:55:18.284Z,-2.55
2022-12-12T23:59:21.286Z,-2.50
